Wednesday, August 20, 2014
06:56 UTC
  |  Log In   |  Register Free
Airport Search:

Livermore Municipal Airport
(KLVK)

FAA data valid effective July 24, 2014 until September 18, 2014 (unless otherwise noted).

 
 
 
 
 
 
 
 
 
 
 
 
 
 

Current Aviation Weather for Livermore Municipal Airport (KLVK)

The most recent METAR observation for KLVK was updated at: 1753 UTC
METAR Summary (Translated METAR)
KLVK
281753Z 28004KT 10SM CLR 26/13 A3002 RMK AO2 SLP161 T02610133 10261 20161 50002
KHWD
(14.5 nm SW from KLVK)
281754Z 29007KT 10SM CLR 19/16 A3005 RMK AO2 SLP184 T01940156 10211 20161 50005
TAF Summary (Translated TAF)
KOAK
(19.1 nm NW from KLVK)
200541Z 2006/2112 28008KT P6SM SCT010 TEMPO 2006/2010 BKN010 FM201000 28008KT P6SM OVC010 FM201900 30016KT P6SM SCT010 FM210400 29011KT P6SM FEW010
  Airport Weather Conditions for KLVK

 Current Weather at LVK
63° F
Fair
West winds at 12.7 mph
LVK NOAA Radar

Pressure: 29.83 in
Humidity: 84%
Wind: West at 12.7 MPH (11 KT)
Dew Point: 57.9°F
Visibility: 10.00 mi


Airport Weather Forecast for KLVK

Translated METAR and TAF for KLVK
Translated METAR for KLVK (0650 UTC 20 August 2014)
found at http://aviationweather.gov/adds/metars/
 
METAR text: KLVK 200553Z AUTO 29008KT 10SM CLR 17/14 A2985 RMK AO2 SLP105 T01720144 10256 20172 53015
Conditions at: KLVK (LIVERMORE , CA, US) observed 0553 UTC 20 August 2014
Temperature: 17.2°C (63°F)
Dewpoint: 14.4°C (58°F) [RH = 84%]
Pressure (altimeter): 29.85 inches Hg (1010.9 mb)
[Sea-level pressure: 1010.5 mb]
Winds: from the WNW (290 degrees) at 9 MPH (8 knots; 4.2 m/s)
Visibility: 10 or more miles (16+ km)
Ceiling: at least 12,000 feet AGL
Clouds: sky clear below 12,000 feet AGL
Weather: automated observation with no human augmentation;
there may or may not be significant weather present at this time
Translated TAF for KLVK

There is no translated TAF available for this airport

Find All Airport Services Find A Hotel Find A Rental Car Find A Golf Course Find A Restaurant $100 Hamburger



FBO's on the Field
FBO Company Facility Photos Services Transportation Aviation Fuel Prices: Prices include tax
Catering Weather Repair Courtesy Rental Type 100LL JetA JetA+ MOGAS 8087
 
Livermore Municipal Airport

This FBO has not yet been rated
FS:Ascent
Last Updated: Aug-14
Login to update fuel prices
SS:
Contact Livermore Municipal AirportMore FBO Information
 
Add another FBO Facility Photos Catering Weather Repair Courtesy Rental Type 100LL JetA JetA+ MOGAS 8087
Services Transportation Aviation Fuel Prices: Prices include tax


GlobalAir.com Airport Resource Center model-print
model-print
model-print
model-print